Terminal Aerodrome Forecast
Issued by NWS

Home | Current Version | Previous Version | Text Only | Print | Product List | Glossary On
Versions: 1 2 3 4 5 6 7 8 9 10 11 12 13 14 15 16 17 18 19 20 21 22 23 24 25 26 27 28 29 30
000
FTUS41 KBTV 220000 AAA
TAFPBG
TAF AMD
KPBG 220002Z 2200/2224 16006KT 3SM RA BR BKN045 OVC070
      TEMPO 2200/2204 6SM -RA BR
     FM220400 17004KT 6SM -SHRA OVC050
     FM220600 VRB03KT P6SM OVC100
     FM221000 29006KT P6SM OVC025
     FM221400 31014G20KT P6SM OVC025=

USA.gov is the U.S. government's official web portal to all federal, state and local government web resources and services.